Aérodrome :
LOGIN :

S'inscrire | Disclaimer

   EN    FR    IT 

 










Légende :    VFR   VFR Marginal   IFR   IFR Intensif   IFR Très Intensif
Visi : 
Plafond : 
>= 8 km
>= 3000ft
5 à 8 km
1000 à 3000 ft
1500m à 5 km
500 à 1000 ft
800 à 1500m
200 à 500 ft
< 800m
< 200 ft
Symboles :   Orages  Brouillard  Fortes neiges  Fortes précipitations  Vent > 20 kt
SIGMETs :   Divers  Orages  Givrage  Turbulence  Onde Orograph.  Cendres Volcan.







- Altitude de l'aérodrome : 44 ft
- Code IATA : SOU
- Voir les cartes d'approche


EGHI - Southampton

DERNIER METAR :
  • 211720Z 23017KT 200V260 9000 VCSH FEW026 SCT035 11/08 Q1003

METARs EXPIRÉS :
  • 211650Z 23017G31KT 190V270 9000 VCSH FEW026 SCT035 12/07 Q1003
  • 211620Z 23020G33KT 210V270 9000 VCSH FEW030 SCT035 13/07 Q1003
  • 211550Z 23022G32KT 200V260 9000 VCSH FEW030 SCT035 13/07 Q1003
  • 211520Z 24023G41KT 210V280 9000 VCSH FEW027CB FEW030 SCT035 13/07 Q1003
  • 211450Z 23018G28KT 190V260 9000 VCSH FEW027CB FEW028 SCT034 13/08 Q1003

TAF TAF EGHI
Valide du 21 à 18h jusqu'au 21 à 22h UTC


211708Z 2118/2122 23025G35KT 9999 SCT025
BECMG 2118/2121 27014KT
TEMPO 2118/2122 6000 SHRA
PROB30
TEMPO 2118/2120 24030G45KT 4000 +SHRA BKN014CB
TEMPO 2121/2122 28017G27KT
ATIS : +44 23 8062 7103
Pas de NOTAMs connus pour ce terrain.
2 SIGMETs publiés pour la FIR London (EGTT) :
 
Turbulence forte
EGTT SIGMET 05 VALID 211800/212200 EGRR
EGTT LONDON FIR SEV TURB FCST SE OF LINE N5500 W00059 - N5332 W00530 SFC/FL060 STNR WKN=
Turbulence forte
EGTT SIGMET 04 VALID 211400/211800 EGRR
EGTT LONDON FIR SEV TURB FCST S OF N5400 SFC/FL060 STNR WKN=



MET'MAP, la Météo Aéronautique d'un coup d'oeil ! - Copyright ORBIFLY Décembre 2007 - Disclaimer

ORBIFLY MET'MAP TEAM :

Programmation & Développement : Alexandra Zaïnal
Conception & Développement : Baudouin d'Aumeries
Co-Programmation & Développement : Marc-Olivier Méhu
Soutien technique & logistique : Manuel Goepfert

Contact : metmap@orbifly.com




SOURCES & CREDITS :

   NOAA